Time;durP1;ratioP1;P1;durP2;ratioP2;P2;SDS_P1;SDS_P2;PMS_P1;PMS_P2;Temp;Humidity;BMP_temperature;BMP_pressure;BME280_temperature;BME280_humidity;BME280_pressure;Samples;Min_cycle;Max_cycle;Signal;HPM_P1;HPM_P2
2023/12/24 00:01:05;;;;;;;17.40;4.00;;;9.30;99.90;;;;;;4967730;28;20437;-74
2023/12/24 00:03:32;;;;;;;11.75;3.05;;;9.30;99.90;;;;;;4954268;28;20051;-73
2023/12/24 00:05:58;;;;;;;16.90;3.90;;;9.30;99.90;;;;;;4959434;28;20066;-74
2023/12/24 00:08:23;;;;;;;15.63;3.60;;;9.40;99.90;;;;;;4953099;28;20039;-74
2023/12/24 00:10:49;;;;;;;15.43;3.45;;;9.40;99.90;;;;;;4954118;28;20610;-73
2023/12/24 00:13:15;;;;;;;13.50;3.97;;;9.30;99.90;;;;;;4959378;28;20047;-73
2023/12/24 00:15:40;;;;;;;16.15;3.60;;;9.30;99.90;;;;;;4954347;28;20047;-74
2023/12/24 00:18:06;;;;;;;16.98;3.33;;;9.30;99.90;;;;;;4958480;28;20042;-73
2023/12/24 00:20:31;;;;;;;16.30;3.40;;;9.30;99.90;;;;;;4955858;28;20043;-73
2023/12/24 00:23:05;;;;;;;10.65;3.25;;;9.40;99.90;;;;;;4959768;28;20043;-73
2023/12/24 00:25:31;;;;;;;9.02;2.92;;;9.40;99.90;;;;;;4955949;28;20083;-74
2023/12/24 00:27:58;;;;;;;14.30;3.13;;;9.40;99.90;;;;;;4959068;28;20097;-75
2023/12/24 00:30:26;;;;;;;16.38;3.13;;;9.30;99.90;;;;;;4954975;28;20043;-73
2023/12/24 00:32:53;;;;;;;15.15;3.63;;;9.40;99.90;;;;;;4956560;28;20051;-74
2023/12/24 00:35:19;;;;;;;13.68;3.20;;;9.40;99.90;;;;;;4955415;28;20491;-74
2023/12/24 00:37:45;;;;;;;18.25;3.55;;;9.40;99.90;;;;;;4956038;28;20551;-73
2023/12/24 00:40:10;;;;;;;12.73;2.83;;;9.40;99.90;;;;;;4973633;28;20123;-73
2023/12/24 00:42:36;;;;;;;14.48;3.40;;;9.40;99.90;;;;;;4960230;28;20411;-73
2023/12/24 00:45:02;;;;;;;14.02;3.63;;;9.40;99.90;;;;;;4959656;28;20047;-73
2023/12/24 00:47:27;;;;;;;14.45;3.35;;;9.40;99.90;;;;;;4954576;28;20039;-73
2023/12/24 00:49:53;;;;;;;17.77;3.30;;;9.40;99.90;;;;;;4960382;28;20050;-75
2023/12/24 00:52:18;;;;;;;16.38;3.08;;;9.40;99.90;;;;;;4959322;28;20051;-74
2023/12/24 00:54:44;;;;;;;13.27;3.20;;;9.40;99.90;;;;;;4955006;28;20047;-74
2023/12/24 00:57:09;;;;;;;14.52;3.17;;;9.40;99.90;;;;;;4957115;28;20054;-74
2023/12/24 00:59:35;;;;;;;12.88;2.85;;;10.30;99.90;;;;;;4956922;28;20055;-76
2023/12/24 01:02:00;;;;;;;14.77;3.40;;;9.40;99.90;;;;;;4954933;28;20046;-74
2023/12/24 01:04:26;;;;;;;17.08;3.47;;;9.40;99.90;;;;;;4975362;28;20042;-77
2023/12/24 01:06:52;;;;;;;13.02;3.40;;;9.40;99.90;;;;;;4956184;28;20046;-74
2023/12/24 01:09:17;;;;;;;11.75;2.67;;;9.40;99.90;;;;;;4959894;28;20042;-74
2023/12/24 01:11:43;;;;;;;12.32;2.72;;;9.40;99.90;;;;;;4963017;28;20047;-74
2023/12/24 01:14:09;;;;;;;16.08;3.10;;;9.40;99.90;;;;;;4962354;28;20401;-74
2023/12/24 01:16:39;;;;;;;10.20;2.58;;;9.40;99.90;;;;;;4959029;28;20047;-74
2023/12/24 01:19:05;;;;;;;10.85;2.70;;;9.40;99.90;;;;;;4959577;28;20086;-74
2023/12/24 01:21:30;;;;;;;15.05;2.78;;;9.40;99.90;;;;;;4963170;28;20051;-74
2023/12/24 01:23:56;;;;;;;14.55;2.95;;;9.40;99.90;;;;;;4957281;28;20035;-75
2023/12/24 01:26:21;;;;;;;14.95;2.80;;;9.60;99.90;;;;;;4967715;28;20039;-74
2023/12/24 01:28:47;;;;;;;12.07;2.40;;;9.40;99.90;;;;;;4953523;28;20043;-74
2023/12/24 01:31:12;;;;;;;13.60;2.70;;;9.40;99.90;;;;;;4957146;28;20111;-74
2023/12/24 01:33:38;;;;;;;9.52;2.47;;;9.40;99.90;;;;;;4961018;28;20478;-75
2023/12/24 01:36:04;;;;;;;13.35;2.63;;;9.40;99.90;;;;;;4954032;28;20075;-76
2023/12/24 01:38:30;;;;;;;11.10;2.67;;;9.40;99.90;;;;;;4969423;28;20093;-74
2023/12/24 01:40:55;;;;;;;10.05;2.40;;;9.40;99.90;;;;;;4952845;28;20051;-75
2023/12/24 01:43:21;;;;;;;13.18;2.65;;;9.40;99.90;;;;;;4955363;28;20038;-75
2023/12/24 01:45:46;;;;;;;12.52;2.47;;;9.40;99.90;;;;;;4960347;28;20085;-74
2023/12/24 01:48:15;;;;;;;11.65;2.42;;;9.40;99.90;;;;;;4962078;28;20074;-74
2023/12/24 01:50:46;;;;;;;11.77;2.58;;;9.40;99.90;;;;;;4960374;28;20050;-74
2023/12/24 01:53:13;;;;;;;10.35;2.53;;;9.40;99.90;;;;;;4953170;28;20039;-73
2023/12/24 01:55:39;;;;;;;10.52;2.72;;;9.40;99.90;;;;;;4958414;28;20070;-75
2023/12/24 01:58:05;;;;;;;12.05;2.97;;;9.40;99.90;;;;;;4951374;28;20130;-75
2023/12/24 02:00:31;;;;;;;14.40;2.50;;;9.40;99.90;;;;;;4959271;28;20127;-74
2023/12/24 02:02:59;;;;;;;8.02;2.47;;;9.40;99.90;;;;;;4958237;28;20153;-73
2023/12/24 02:05:26;;;;;;;12.50;2.60;;;9.40;99.90;;;;;;4962271;28;20042;-74
2023/12/24 02:07:52;;;;;;;10.43;2.58;;;9.40;99.90;;;;;;4956414;28;20121;-74
2023/12/24 02:10:18;;;;;;;10.93;2.53;;;9.40;99.90;;;;;;4951945;28;20118;-74
2023/12/24 02:12:44;;;;;;;12.80;3.00;;;9.40;99.90;;;;;;4958094;28;20074;-73
2023/12/24 02:15:10;;;;;;;11.23;2.80;;;9.30;99.90;;;;;;4949676;28;20047;-73
2023/12/24 02:17:36;;;;;;;13.15;2.70;;;9.30;99.90;;;;;;4951283;28;20058;-73
2023/12/24 02:20:02;;;;;;;12.40;3.08;;;9.30;99.90;;;;;;4957212;28;20050;-74
2023/12/24 02:22:28;;;;;;;11.13;2.67;;;9.30;99.90;;;;;;4954074;28;20070;-74
2023/12/24 02:24:55;;;;;;;8.18;2.35;;;9.30;99.90;;;;;;4956667;28;20046;-73
2023/12/24 02:27:36;;;;;;;13.25;3.15;;;9.30;99.90;;;;;;4957004;28;20090;-74
2023/12/24 02:30:10;;;;;;;12.20;3.17;;;9.30;99.90;;;;;;4965499;28;20134;-74
2023/12/24 02:32:38;;;;;;;12.45;3.80;;;9.30;99.90;;;;;;4965621;28;20039;-74
2023/12/24 02:35:05;;;;;;;8.32;3.33;;;9.30;99.90;;;;;;4953727;28;20121;-75
2023/12/24 02:37:31;;;;;;;9.40;4.10;;;9.30;99.90;;;;;;4962116;28;20138;-74
2023/12/24 02:39:57;;;;;;;12.48;4.07;;;9.20;99.90;;;;;;4952577;28;20142;-73
2023/12/24 02:42:22;;;;;;;11.82;3.72;;;9.20;99.90;;;;;;4955139;28;20043;-74
2023/12/24 02:44:48;;;;;;;15.98;4.50;;;9.30;99.90;;;;;;4959493;28;20043;-75
2023/12/24 02:47:13;;;;;;;16.45;4.00;;;9.30;99.90;;;;;;4955618;28;20027;-73
2023/12/24 02:49:39;;;;;;;11.40;4.28;;;9.30;99.90;;;;;;4957657;28;20094;-73
2023/12/24 02:52:05;;;;;;;12.48;4.15;;;9.20;99.90;;;;;;4953461;28;20069;-73
2023/12/24 02:54:30;;;;;;;11.88;4.00;;;9.30;99.90;;;;;;4962181;28;20051;-73
2023/12/24 02:56:56;;;;;;;10.10;4.40;;;9.20;99.90;;;;;;4953584;28;20038;-73
2023/12/24 02:59:22;;;;;;;9.20;4.05;;;9.30;99.90;;;;;;4958603;28;20395;-73
2023/12/24 03:01:48;;;;;;;14.00;4.20;;;9.30;99.90;;;;;;4966178;28;20494;-73
2023/12/24 03:04:15;;;;;;;8.35;3.72;;;9.20;99.90;;;;;;4962952;28;20074;-74
2023/12/24 03:06:41;;;;;;;12.75;4.40;;;9.30;99.90;;;;;;4952213;28;20086;-73
2023/12/24 03:09:06;;;;;;;16.20;4.35;;;9.20;99.90;;;;;;4958508;28;20066;-73
2023/12/24 03:11:32;;;;;;;18.27;4.28;;;9.30;99.90;;;;;;4957444;28;20047;-73
2023/12/24 03:13:58;;;;;;;10.55;3.72;;;9.30;99.90;;;;;;4950593;28;20094;-73
2023/12/24 03:16:23;;;;;;;10.93;4.15;;;9.30;99.90;;;;;;4954074;28;20042;-73
2023/12/24 03:18:49;;;;;;;12.35;3.38;;;9.30;99.90;;;;;;4959056;28;20046;-73
2023/12/24 03:21:14;;;;;;;13.75;4.10;;;9.30;99.90;;;;;;4951317;28;20102;-73
2023/12/24 03:23:40;;;;;;;8.77;3.33;;;9.30;99.90;;;;;;4953157;28;20054;-73
2023/12/24 03:26:05;;;;;;;9.27;3.30;;;9.30;99.90;;;;;;4948385;28;20039;-73
2023/12/24 03:28:31;;;;;;;11.85;3.25;;;9.30;99.90;;;;;;4953098;28;20051;-73
2023/12/24 03:30:56;;;;;;;8.65;3.40;;;9.30;99.90;;;;;;4959680;28;20048;-74
2023/12/24 03:33:22;;;;;;;8.43;3.92;;;9.30;99.90;;;;;;4953126;28;20075;-74
2023/12/24 03:35:47;;;;;;;10.15;3.40;;;9.30;99.90;;;;;;4958552;28;20502;-76
2023/12/24 03:38:13;;;;;;;12.40;3.60;;;9.30;99.90;;;;;;4949913;28;20765;-74
2023/12/24 03:40:39;;;;;;;9.68;3.13;;;9.30;99.90;;;;;;4960402;28;20062;-74
2023/12/24 03:43:04;;;;;;;13.10;2.78;;;9.40;99.90;;;;;;4961617;28;20558;-74
2023/12/24 03:45:32;;;;;;;10.38;3.10;;;9.40;99.90;;;;;;4953375;28;20073;-75
2023/12/24 03:47:57;;;;;;;8.38;2.75;;;9.40;99.90;;;;;;4961255;28;20413;-74
2023/12/24 03:50:23;;;;;;;7.68;2.83;;;9.80;99.90;;;;;;4962590;28;20035;-74
2023/12/24 03:52:48;;;;;;;8.45;2.67;;;10.00;99.90;;;;;;4960608;28;20126;-74
2023/12/24 03:55:14;;;;;;;11.10;2.70;;;9.40;99.90;;;;;;4963194;28;20043;-74
2023/12/24 03:57:40;;;;;;;7.70;2.80;;;9.40;99.90;;;;;;4962882;28;20047;-73
2023/12/24 04:00:06;;;;;;;8.50;2.58;;;9.40;99.90;;;;;;4964878;28;20101;-73
2023/12/24 04:02:32;;;;;;;13.93;2.78;;;9.40;99.90;;;;;;4958667;28;20532;-74
2023/12/24 04:04:57;;;;;;;5.95;2.17;;;9.40;99.90;;;;;;4960061;28;20074;-74
2023/12/24 04:07:23;;;;;;;7.38;2.58;;;9.40;99.90;;;;;;4954269;28;20035;-74
2023/12/24 04:09:48;;;;;;;5.63;2.03;;;9.50;99.90;;;;;;4969287;28;20042;-74
2023/12/24 04:12:14;;;;;;;4.80;2.17;;;9.50;99.90;;;;;;4987548;28;20654;-77
2023/12/24 04:14:39;;;;;;;5.25;2.17;;;9.50;99.90;;;;;;4963813;28;20051;-74
2023/12/24 04:17:05;;;;;;;4.85;2.40;;;9.50;99.90;;;;;;4959120;28;20498;-74
2023/12/24 04:19:31;;;;;;;5.10;2.22;;;9.50;99.90;;;;;;4959514;28;20054;-74
2023/12/24 04:21:57;;;;;;;4.55;2.03;;;9.50;99.90;;;;;;4962958;28;20034;-74
2023/12/24 04:24:23;;;;;;;8.50;2.75;;;9.50;99.90;;;;;;4966191;28;20383;-74
2023/12/24 04:26:49;;;;;;;5.20;2.22;;;9.50;99.90;;;;;;4957697;28;20054;-73
2023/12/24 04:29:14;;;;;;;8.35;2.58;;;9.50;99.90;;;;;;4961048;28;20043;-73
2023/12/24 04:31:40;;;;;;;7.95;2.38;;;9.60;99.90;;;;;;4974608;28;20134;-73
2023/12/24 04:34:06;;;;;;;4.10;2.00;;;9.50;99.90;;;;;;4955643;28;20047;-75
2023/12/24 04:36:35;;;;;;;7.57;2.17;;;9.60;99.90;;;;;;4957673;28;20055;-73
2023/12/24 04:39:02;;;;;;;5.35;2.20;;;9.50;99.90;;;;;;4956712;28;20050;-73
2023/12/24 04:41:28;;;;;;;6.25;2.20;;;9.50;99.90;;;;;;4952798;28;20083;-74
2023/12/24 04:43:57;;;;;;;4.10;2.15;;;9.60;99.90;;;;;;4963446;28;20070;-75
2023/12/24 04:46:22;;;;;;;5.07;2.10;;;9.60;99.90;;;;;;4960375;28;20446;-73
2023/12/24 04:48:48;;;;;;;5.00;2.00;;;9.60;99.90;;;;;;4959188;28;20043;-73
2023/12/24 04:51:13;;;;;;;4.43;2.10;;;9.70;99.90;;;;;;4955014;28;20047;-75
2023/12/24 04:53:39;;;;;;;3.92;2.10;;;9.70;99.90;;;;;;4957415;28;20047;-75
2023/12/24 04:56:05;;;;;;;4.13;1.70;;;9.70;99.90;;;;;;4959298;28;20045;-74
2023/12/24 04:58:30;;;;;;;5.72;2.20;;;9.70;99.90;;;;;;4961752;28;20079;-73
2023/12/24 05:00:57;;;;;;;5.97;1.92;;;9.80;99.90;;;;;;4962223;28;20055;-75
2023/12/24 05:03:23;;;;;;;5.32;2.50;;;9.70;99.90;;;;;;4955470;28;20582;-74
2023/12/24 05:05:48;;;;;;;5.00;2.05;;;9.70;99.90;;;;;;4954237;28;20118;-74
2023/12/24 05:08:14;;;;;;;3.17;1.90;;;9.70;99.90;;;;;;4958261;28;20122;-73
2023/12/24 05:10:40;;;;;;;4.45;2.20;;;9.70;99.90;;;;;;4959022;28;20039;-73
2023/12/24 05:13:06;;;;;;;3.08;1.70;;;9.80;99.90;;;;;;4954829;28;20032;-74
2023/12/24 05:15:31;;;;;;;4.50;1.80;;;9.80;99.90;;;;;;4972543;28;20498;-74
2023/12/24 05:17:57;;;;;;;4.63;2.58;;;9.90;99.90;;;;;;4976196;28;20047;-74
2023/12/24 05:20:23;;;;;;;4.93;2.25;;;9.80;99.90;;;;;;4955421;28;20039;-74
2023/12/24 05:22:48;;;;;;;4.25;2.20;;;9.90;99.90;;;;;;4981055;28;20572;-74
2023/12/24 05:25:14;;;;;;;4.63;2.15;;;9.90;99.90;;;;;;4954294;28;20719;-74
2023/12/24 05:27:39;;;;;;;5.85;2.00;;;9.90;99.90;;;;;;4961595;28;20038;-74
2023/12/24 05:30:08;;;;;;;4.22;2.05;;;9.90;99.90;;;;;;4953793;28;20045;-73
2023/12/24 05:32:34;;;;;;;5.45;2.33;;;9.90;99.90;;;;;;4955600;28;20047;-74
2023/12/24 05:34:59;;;;;;;5.40;2.10;;;9.90;99.90;;;;;;4957067;28;20134;-74
2023/12/24 05:37:25;;;;;;;5.57;2.10;;;10.00;99.90;;;;;;4951659;28;20042;-74
2023/12/24 05:39:51;;;;;;;7.10;2.67;;;10.00;99.90;;;;;;4956248;28;20117;-75
2023/12/24 05:42:16;;;;;;;6.43;2.25;;;10.00;99.90;;;;;;4959533;28;20058;-74
2023/12/24 05:44:42;;;;;;;5.93;2.30;;;10.00;99.90;;;;;;4959489;28;20039;-74
2023/12/24 05:47:07;;;;;;;5.30;2.40;;;10.00;99.90;;;;;;4958367;28;20117;-74
2023/12/24 05:49:37;;;;;;;5.53;2.55;;;10.00;99.90;;;;;;4955726;28;20047;-73
2023/12/24 05:52:02;;;;;;;5.63;2.60;;;10.00;99.90;;;;;;4956740;28;20039;-74
2023/12/24 05:54:28;;;;;;;6.55;2.88;;;10.00;99.90;;;;;;4953401;28;20406;-78
2023/12/24 05:56:53;;;;;;;7.97;2.85;;;10.10;99.90;;;;;;4957324;28;20047;-75
2023/12/24 05:59:19;;;;;;;8.75;3.63;;;10.10;99.90;;;;;;4967214;28;20042;-73
2023/12/24 06:01:44;;;;;;;9.90;3.92;;;10.10;99.90;;;;;;4956743;28;20792;-74
2023/12/24 06:04:10;;;;;;;9.98;3.90;;;10.10;99.90;;;;;;4958225;28;20042;-74
2023/12/24 06:06:40;;;;;;;13.20;4.07;;;10.10;99.90;;;;;;4962550;28;20096;-76
2023/12/24 06:09:06;;;;;;;19.30;3.80;;;10.10;99.90;;;;;;4955463;28;20043;-75
2023/12/24 06:11:32;;;;;;;10.88;3.40;;;10.10;99.90;;;;;;4960002;28;20050;-74
2023/12/24 06:13:58;;;;;;;15.27;4.10;;;10.10;99.90;;;;;;4953050;28;20446;-73
2023/12/24 06:16:23;;;;;;;10.93;4.30;;;10.10;99.90;;;;;;4956866;28;20042;-74
2023/12/24 06:18:49;;;;;;;14.30;4.38;;;10.20;99.90;;;;;;4961853;28;20046;-74
2023/12/24 06:21:15;;;;;;;15.63;4.68;;;10.20;99.90;;;;;;4958072;28;20435;-74
2023/12/24 06:23:40;;;;;;;18.60;4.43;;;10.20;99.90;;;;;;4968717;28;20529;-75
2023/12/24 06:26:06;;;;;;;12.57;4.00;;;10.20;99.90;;;;;;4952773;28;20035;-73
2023/12/24 06:28:31;;;;;;;15.57;4.43;;;10.30;99.90;;;;;;4960456;28;20093;-74
2023/12/24 06:30:57;;;;;;;16.55;4.95;;;10.20;99.90;;;;;;4956581;28;20039;-74
2023/12/24 06:33:22;;;;;;;16.35;4.78;;;10.30;99.90;;;;;;4982827;28;20053;-75
2023/12/24 06:35:48;;;;;;;17.23;5.03;;;11.00;99.90;;;;;;4954417;28;20055;-73
2023/12/24 06:38:14;;;;;;;17.23;5.38;;;10.30;99.90;;;;;;4956461;28;20089;-74
2023/12/24 06:40:39;;;;;;;18.42;5.22;;;10.30;99.90;;;;;;4965284;28;20051;-73
2023/12/24 06:43:06;;;;;;;17.75;5.30;;;10.30;99.90;;;;;;4964337;28;20039;-75
2023/12/24 06:45:31;;;;;;;14.80;5.30;;;10.30;99.90;;;;;;4960716;28;20413;-75
2023/12/24 06:47:59;;;;;;;21.65;6.22;;;10.30;99.90;;;;;;4954133;28;20050;-76
2023/12/24 06:50:24;;;;;;;20.65;6.43;;;10.40;99.90;;;;;;4956856;28;20038;-74
2023/12/24 06:52:50;;;;;;;25.90;6.32;;;10.40;99.90;;;;;;4952963;28;20043;-74
2023/12/24 06:55:16;;;;;;;15.10;5.15;;;10.40;99.90;;;;;;4950416;28;20098;-74
2023/12/24 06:57:41;;;;;;;20.05;4.75;;;10.40;99.90;;;;;;4945436;28;20053;-75
2023/12/24 07:00:07;;;;;;;21.05;5.60;;;10.40;99.90;;;;;;4947599;28;20035;-74
2023/12/24 07:02:33;;;;;;;15.63;4.55;;;10.40;99.90;;;;;;4958511;28;20129;-74
2023/12/24 07:04:58;;;;;;;16.95;4.65;;;10.40;99.90;;;;;;4959424;28;20509;-74
2023/12/24 07:07:24;;;;;;;25.75;5.55;;;10.50;99.90;;;;;;4951821;28;20379;-74
2023/12/24 07:09:49;;;;;;;19.77;4.63;;;10.40;99.90;;;;;;4958098;28;20751;-76
2023/12/24 07:12:15;;;;;;;19.13;4.65;;;10.40;99.90;;;;;;4951594;28;20061;-74
2023/12/24 07:14:40;;;;;;;19.92;4.47;;;10.50;99.90;;;;;;4961880;28;20046;-74
2023/12/24 07:17:06;;;;;;;20.67;5.07;;;10.50;99.90;;;;;;4969367;28;20046;-75
2023/12/24 07:19:33;;;;;;;22.40;5.07;;;10.50;99.90;;;;;;4971627;28;20061;-75
2023/12/24 07:21:58;;;;;;;17.67;4.63;;;10.50;99.90;;;;;;4961598;28;20042;-74
2023/12/24 07:24:24;;;;;;;14.82;4.70;;;10.50;99.90;;;;;;4955115;28;20042;-74
2023/12/24 07:26:49;;;;;;;22.75;4.63;;;10.50;99.90;;;;;;4962881;28;20049;-74
2023/12/24 07:29:15;;;;;;;26.65;5.15;;;10.50;99.90;;;;;;4953710;28;20040;-74
2023/12/24 07:31:41;;;;;;;23.40;5.25;;;10.50;99.90;;;;;;4960451;28;20074;-74
2023/12/24 07:34:06;;;;;;;20.45;5.28;;;10.50;99.90;;;;;;4959644;28;20035;-75
2023/12/24 07:36:32;;;;;;;26.92;5.25;;;10.60;99.90;;;;;;4958946;28;20077;-74
2023/12/24 07:38:58;;;;;;;21.33;4.70;;;10.50;99.90;;;;;;4959792;28;20182;-74
2023/12/24 07:41:26;;;;;;;23.45;5.03;;;10.60;99.90;;;;;;4962160;28;20039;-74
2023/12/24 07:43:52;;;;;;;19.52;5.32;;;10.60;99.90;;;;;;4986538;28;20050;-74
2023/12/24 07:46:17;;;;;;;20.63;5.28;;;10.60;99.90;;;;;;4952097;28;20039;-74
2023/12/24 07:48:43;;;;;;;20.23;5.28;;;10.60;99.90;;;;;;4957616;28;20457;-75
2023/12/24 07:51:08;;;;;;;25.08;4.65;;;10.60;99.90;;;;;;4960051;28;20039;-74
2023/12/24 07:53:34;;;;;;;25.88;5.43;;;10.60;99.90;;;;;;4968441;28;20064;-74
2023/12/24 07:55:59;;;;;;;20.15;4.65;;;10.70;99.90;;;;;;4960722;28;20035;-74
2023/12/24 07:58:25;;;;;;;19.95;4.55;;;10.70;99.90;;;;;;4966062;28;20039;-74
2023/12/24 08:00:50;;;;;;;20.45;5.72;;;10.80;99.90;;;;;;4957238;28;20512;-74
2023/12/24 08:03:16;;;;;;;21.02;4.50;;;10.70;99.90;;;;;;4952096;28;20052;-74
2023/12/24 08:05:42;;;;;;;21.75;4.68;;;10.80;99.90;;;;;;4961596;28;20058;-75
2023/12/24 08:08:08;;;;;;;20.60;4.63;;;10.80;99.90;;;;;;4951963;28;20035;-74
2023/12/24 08:10:34;;;;;;;24.85;5.35;;;10.80;99.90;;;;;;4958523;28;20039;-75
2023/12/24 08:13:00;;;;;;;20.23;4.05;;;10.80;99.90;;;;;;4955658;28;20047;-74
2023/12/24 08:15:25;;;;;;;18.92;4.43;;;10.90;99.90;;;;;;4953185;28;20410;-76
2023/12/24 08:17:51;;;;;;;23.60;4.28;;;10.90;99.90;;;;;;4953803;28;20489;-74
2023/12/24 08:20:20;;;;;;;17.15;4.40;;;10.90;99.90;;;;;;4957723;28;20509;-74
2023/12/24 08:22:46;;;;;;;19.02;4.38;;;10.90;99.90;;;;;;4960214;28;20061;-75
2023/12/24 08:25:12;;;;;;;18.70;4.15;;;10.90;99.90;;;;;;4956716;28;20035;-74
2023/12/24 08:27:38;;;;;;;17.42;4.10;;;10.90;99.90;;;;;;4941626;28;20047;-76
2023/12/24 08:30:04;;;;;;;25.20;4.22;;;10.90;99.90;;;;;;4956452;28;20636;-74
2023/12/24 08:32:30;;;;;;;24.75;4.32;;;10.90;99.90;;;;;;4961022;28;20435;-75
2023/12/24 08:34:55;;;;;;;24.75;4.78;;;10.90;99.90;;;;;;4964528;28;20043;-74
2023/12/24 08:37:21;;;;;;;21.27;4.57;;;10.90;99.90;;;;;;4955671;28;20035;-74
2023/12/24 08:39:46;;;;;;;22.77;5.15;;;10.90;99.90;;;;;;4957417;28;20054;-76
2023/12/24 08:42:12;;;;;;;27.17;4.63;;;11.00;99.90;;;;;;4969104;28;20055;-76
2023/12/24 08:44:37;;;;;;;18.73;4.40;;;10.90;99.90;;;;;;4959965;28;20142;-74
2023/12/24 08:47:03;;;;;;;21.90;4.78;;;10.90;99.90;;;;;;4960432;28;20074;-75
2023/12/24 08:49:29;;;;;;;19.35;4.72;;;10.90;99.90;;;;;;4959312;28;20043;-74
2023/12/24 08:51:54;;;;;;;27.48;4.72;;;11.00;99.90;;;;;;4953691;28;20399;-76
2023/12/24 08:54:20;;;;;;;22.05;4.05;;;10.90;99.90;;;;;;4954559;28;20054;-74
2023/12/24 08:56:45;;;;;;;18.80;5.35;;;11.00;99.90;;;;;;4957676;28;20468;-76
2023/12/24 08:59:11;;;;;;;18.58;4.18;;;11.00;99.90;;;;;;4959245;28;20046;-74
2023/12/24 09:01:41;;;;;;;17.48;3.92;;;11.00;99.90;;;;;;4957153;28;20043;-77
2023/12/24 09:04:06;;;;;;;19.58;4.50;;;11.00;99.90;;;;;;4967931;28;20454;-74
2023/12/24 09:06:32;;;;;;;20.13;4.03;;;11.00;99.90;;;;;;4959888;28;20039;-75
2023/12/24 09:08:57;;;;;;;18.38;3.95;;;11.00;99.90;;;;;;4958994;28;20047;-74
2023/12/24 09:11:23;;;;;;;16.48;4.30;;;11.00;99.90;;;;;;4961497;28;20035;-76
2023/12/24 09:13:48;;;;;;;14.60;4.35;;;11.10;99.90;;;;;;4961194;28;20067;-75
2023/12/24 09:16:14;;;;;;;22.48;4.43;;;11.10;99.90;;;;;;4961667;28;20051;-74
2023/12/24 09:18:39;;;;;;;17.38;4.00;;;11.10;99.90;;;;;;4955604;28;20047;-74
2023/12/24 09:21:05;;;;;;;18.40;3.83;;;11.10;99.90;;;;;;4967126;28;20110;-76
2023/12/24 09:23:31;;;;;;;17.13;4.05;;;11.10;99.90;;;;;;4959938;28;20047;-74
2023/12/24 09:25:56;;;;;;;16.58;3.83;;;11.10;99.90;;;;;;4957176;28;20592;-74
2023/12/24 09:28:22;;;;;;;17.98;4.45;;;11.10;99.90;;;;;;4962684;28;20031;-74
2023/12/24 09:30:47;;;;;;;17.38;3.58;;;11.20;99.90;;;;;;4957435;28;20053;-76
2023/12/24 09:33:13;;;;;;;16.67;4.03;;;11.20;99.90;;;;;;4954311;28;20039;-74
2023/12/24 09:35:40;;;;;;;19.13;4.05;;;11.10;99.90;;;;;;4960298;28;20035;-74
2023/12/24 09:38:06;;;;;;;20.83;4.47;;;11.20;99.90;;;;;;4960414;28;20046;-75
2023/12/24 09:40:32;;;;;;;19.10;4.38;;;11.20;99.90;;;;;;4966529;28;20051;-75
2023/12/24 09:42:59;;;;;;;12.02;3.60;;;11.20;99.90;;;;;;4957210;28;20143;-75
2023/12/24 09:45:25;;;;;;;13.88;3.58;;;11.20;99.90;;;;;;4959965;28;20065;-74
2023/12/24 09:47:50;;;;;;;15.55;3.85;;;11.20;99.90;;;;;;4953632;28;20482;-74
2023/12/24 09:50:16;;;;;;;15.57;4.43;;;11.20;99.90;;;;;;4958990;28;20395;-74
2023/12/24 09:52:42;;;;;;;21.70;4.28;;;11.20;99.90;;;;;;4957541;28;20126;-74
2023/12/24 09:55:08;;;;;;;17.80;3.88;;;11.30;99.90;;;;;;4954368;28;20423;-74
2023/12/24 09:57:33;;;;;;;15.60;3.17;;;11.30;99.90;;;;;;4955046;28;20047;-75
2023/12/24 09:59:59;;;;;;;16.20;4.60;;;11.40;99.90;;;;;;4952851;28;20058;-75
2023/12/24 10:02:24;;;;;;;12.30;2.92;;;11.40;99.90;;;;;;4957718;28;20062;-76
2023/12/24 10:04:50;;;;;;;13.05;3.10;;;11.40;99.90;;;;;;4961469;28;20043;-75
2023/12/24 10:07:15;;;;;;;15.95;4.10;;;11.50;99.90;;;;;;4956181;28;20035;-75
2023/12/24 10:09:50;;;;;;;15.57;3.67;;;11.50;99.90;;;;;;4959906;28;20047;-75
2023/12/24 10:12:17;;;;;;;16.40;3.08;;;11.50;99.90;;;;;;4967656;28;20058;-74
2023/12/24 10:14:55;;;;;;;13.02;3.22;;;11.60;99.90;;;;;;4953532;28;20085;-74
2023/12/24 10:17:31;;;;;;;18.05;3.88;;;11.60;99.90;;;;;;4960834;28;20402;-76
2023/12/24 10:19:58;;;;;;;13.02;2.78;;;11.60;99.90;;;;;;4950920;28;20055;-74
2023/12/24 10:22:24;;;;;;;12.95;3.38;;;11.60;99.90;;;;;;4954185;28;20130;-76
2023/12/24 10:25:02;;;;;;;12.55;3.33;;;11.60;99.90;;;;;;4950577;28;20042;-74
2023/12/24 10:27:28;;;;;;;15.25;3.53;;;11.60;99.90;;;;;;4979508;28;20379;-74
2023/12/24 10:30:06;;;;;;;15.57;3.50;;;11.60;99.90;;;;;;4954992;28;20121;-74
2023/12/24 10:32:32;;;;;;;15.88;3.53;;;11.60;99.90;;;;;;4965407;28;20062;-74
2023/12/24 10:34:57;;;;;;;20.30;3.80;;;11.60;99.90;;;;;;4952226;28;20499;-75
2023/12/24 10:37:26;;;;;;;14.27;3.40;;;11.60;99.90;;;;;;4955259;28;20126;-74
2023/12/24 10:39:53;;;;;;;17.63;3.70;;;11.60;99.90;;;;;;4953639;28;20039;-74
2023/12/24 10:42:19;;;;;;;12.20;3.03;;;11.60;99.90;;;;;;4953664;28;20442;-74
2023/12/24 10:44:45;;;;;;;18.98;3.28;;;11.60;99.90;;;;;;4963327;28;20082;-74
2023/12/24 10:47:11;;;;;;;18.95;3.55;;;11.70;99.90;;;;;;4951105;28;20074;-74
2023/12/24 10:49:36;;;;;;;13.80;3.28;;;11.70;99.90;;;;;;4984311;28;20094;-75
2023/12/24 10:52:02;;;;;;;18.02;3.28;;;11.70;99.90;;;;;;4962955;28;20055;-75
2023/12/24 10:54:28;;;;;;;13.95;3.15;;;11.70;99.90;;;;;;4956328;28;20046;-77
2023/12/24 10:57:03;;;;;;;17.40;3.38;;;11.80;99.90;;;;;;4963400;28;20425;-77
2023/12/24 10:59:56;;;;;;;14.50;3.08;;;11.80;99.90;;;;;;4965182;28;20057;-74
2023/12/24 11:02:23;;;;;;;16.25;3.33;;;11.70;99.90;;;;;;4959326;28;20463;-76
2023/12/24 11:04:49;;;;;;;16.55;3.47;;;11.80;99.90;;;;;;4961930;28;20042;-75
2023/12/24 11:07:33;;;;;;;16.77;3.60;;;11.80;99.90;;;;;;4978993;28;20043;-80
2023/12/24 11:10:05;;;;;;;13.75;3.30;;;11.80;99.90;;;;;;4962545;28;20042;-75
2023/12/24 11:12:38;;;;;;;10.60;2.75;;;11.80;99.90;;;;;;4959477;28;20051;-76
2023/12/24 11:15:04;;;;;;;15.13;2.85;;;11.80;99.90;;;;;;4962979;28;20054;-74
2023/12/24 11:17:36;;;;;;;21.05;4.28;;;11.80;99.90;;;;;;4971556;28;20038;-74
2023/12/24 11:20:23;;;;;;;13.63;3.25;;;11.80;99.90;;;;;;4965385;28;20039;-75
2023/12/24 11:23:09;;;;;;;12.18;3.13;;;11.80;99.90;;;;;;4962668;28;20047;-74
2023/12/24 11:25:42;;;;;;;14.93;3.55;;;11.90;99.90;;;;;;4952874;28;20047;-75
2023/12/24 11:28:11;;;;;;;17.85;3.10;;;11.90;99.90;;;;;;4968008;28;20776;-75
2023/12/24 11:30:51;;;;;;;13.18;4.07;;;11.80;99.90;;;;;;4956220;28;20047;-74
2023/12/24 11:33:32;;;;;;;16.08;3.22;;;11.80;99.90;;;;;;4961279;28;20129;-75
2023/12/24 11:36:02;;;;;;;12.95;3.38;;;11.80;99.90;;;;;;4953320;28;20391;-74
2023/12/24 11:38:55;;;;;;;17.75;4.03;;;11.80;99.90;;;;;;4961124;28;20035;-74
2023/12/24 11:41:21;;;;;;;;;;;11.80;99.90;;;;;;4952706;28;20051;-75
2023/12/24 11:43:57;;;;;;;18.25;3.28;;;11.80;99.90;;;;;;4962176;28;20401;-77
2023/12/24 11:46:24;;;;;;;14.80;3.72;;;11.80;99.90;;;;;;4952032;28;20043;-74
2023/12/24 11:48:50;;;;;;;16.80;3.33;;;11.80;99.90;;;;;;4959049;28;20043;-75
2023/12/24 11:51:21;;;;;;;15.23;3.38;;;11.80;99.90;;;;;;4958432;28;20051;-76
2023/12/24 11:53:46;;;;;;;8.98;3.17;;;11.80;99.90;;;;;;4968959;28;20054;-75
2023/12/24 11:56:16;;;;;;;15.90;3.58;;;11.80;99.90;;;;;;4956908;28;20089;-75
2023/12/24 11:59:00;;;;;;;12.95;3.05;;;11.80;99.90;;;;;;4960553;28;20047;-75
2023/12/24 12:01:36;;;;;;;13.45;3.00;;;11.80;99.90;;;;;;4973302;28;20041;-78
2023/12/24 12:04:03;;;;;;;15.18;3.17;;;11.80;99.90;;;;;;4972460;28;20058;-74
2023/12/24 12:06:29;;;;;;;13.52;2.95;;;11.80;99.90;;;;;;4960799;28;20047;-76
2023/12/24 12:08:58;;;;;;;12.88;3.35;;;11.90;99.90;;;;;;4956047;28;20058;-76
2023/12/24 12:11:23;;;;;;;13.48;2.78;;;11.90;99.90;;;;;;4954297;28;20063;-74
2023/12/24 12:13:49;;;;;;;17.92;3.25;;;11.90;99.90;;;;;;4953171;28;20039;-74
2023/12/24 12:16:14;;;;;;;14.02;2.95;;;12.00;99.90;;;;;;4957724;28;20043;-76
2023/12/24 12:18:40;;;;;;;12.38;3.25;;;11.90;99.90;;;;;;4961084;28;20430;-78
2023/12/24 12:21:10;;;;;;;13.65;2.88;;;12.00;99.90;;;;;;4958749;28;20047;-75
2023/12/24 12:23:36;;;;;;;21.02;3.17;;;12.00;99.90;;;;;;4956689;28;20047;-75
2023/12/24 12:26:02;;;;;;;13.68;2.97;;;12.20;99.90;;;;;;4955655;28;20055;-75
2023/12/24 12:28:28;;;;;;;11.05;2.95;;;12.00;99.90;;;;;;4958389;28;20047;-75
2023/12/24 12:30:53;;;;;;;12.50;3.17;;;12.80;99.90;;;;;;4957260;28;20047;-75
2023/12/24 12:33:19;;;;;;;11.40;2.92;;;12.00;99.90;;;;;;4974102;28;20036;-75
2023/12/24 12:35:44;;;;;;;12.30;3.10;;;12.00;99.90;;;;;;4954092;28;20047;-76
2023/12/24 12:38:10;;;;;;;9.82;2.63;;;12.00;99.90;;;;;;4959570;28;20126;-74
2023/12/24 12:40:35;;;;;;;13.82;3.30;;;12.00;99.90;;;;;;4953738;28;20046;-74